createdAt,value
2019-03-19T00:03:38.322Z,8.63
2019-03-19T00:06:26.090Z,7.70
2019-03-19T00:08:54.786Z,10.80
2019-03-19T00:11:42.648Z,11.03
2019-03-19T00:14:11.272Z,16.23
2019-03-19T00:16:59.180Z,14.07
2019-03-19T00:19:47.072Z,10.70
2019-03-19T00:22:34.883Z,9.57
2019-03-19T00:25:30.041Z,9.67
2019-03-19T00:28:12.288Z,8.13
2019-03-19T00:31:00.160Z,14.17
2019-03-19T00:33:48.043Z,11.97
2019-03-19T00:36:35.830Z,8.50
2019-03-19T00:39:44.297Z,9.83
2019-03-19T00:42:32.081Z,12.67
2019-03-19T00:45:19.959Z,8.33
2019-03-19T00:48:07.869Z,8.57
2019-03-19T00:50:55.679Z,10.03
2019-03-19T00:53:24.301Z,9.13
2019-03-19T00:56:12.068Z,8.17
2019-03-19T00:58:59.947Z,10.40
2019-03-19T01:01:47.877Z,8.90
2019-03-19T01:04:35.684Z,8.03
2019-03-19T01:07:04.333Z,8.30
2019-03-19T01:09:52.294Z,10.70
2019-03-19T01:12:40.060Z,12.87
2019-03-19T01:15:48.570Z,9.60
2019-03-19T01:18:36.517Z,10.13
2019-03-19T01:21:05.177Z,7.60
2019-03-19T01:23:53.072Z,10.80
2019-03-19T01:26:40.900Z,11.73
2019-03-19T01:32:21.973Z,10.30
2019-03-19T01:35:09.912Z,9.93
2019-03-19T01:37:57.805Z,14.33
2019-03-19T01:40:26.516Z,11.93
2019-03-19T01:42:55.226Z,12.17
2019-03-19T01:45:23.910Z,10.37
2019-03-19T01:48:11.749Z,12.03
2019-03-19T01:50:59.623Z,9.17
2019-03-19T01:53:47.519Z,8.97
2019-03-19T01:56:35.437Z,8.10
2019-03-19T01:59:23.389Z,11.77
2019-03-19T02:02:11.285Z,11.90
2019-03-19T02:04:39.959Z,9.67
2019-03-19T02:07:27.950Z,8.83
2019-03-19T02:10:15.779Z,8.93
2019-03-19T02:13:03.669Z,11.97
2019-03-19T02:15:51.488Z,11.63
2019-03-19T02:18:39.241Z,10.20
2019-03-19T02:21:27.152Z,10.90
2019-03-19T02:26:30.384Z,12.17
2019-03-19T02:29:18.224Z,12.73
2019-03-19T02:32:06.108Z,12.87
2019-03-19T02:34:53.881Z,11.87
2019-03-19T02:37:22.592Z,15.77
2019-03-19T02:40:10.515Z,16.83
2019-03-19T02:42:58.439Z,16.77
2019-03-19T02:45:38.987Z,16.83
2019-03-19T02:48:07.645Z,15.50
2019-03-19T02:50:55.530Z,14.67
2019-03-19T02:53:43.378Z,15.40
2019-03-19T02:56:33.467Z,13.73
2019-03-19T03:02:08.513Z,14.60
2019-03-19T03:04:56.394Z,14.43
2019-03-19T03:07:25.102Z,14.97
2019-03-19T03:10:13.020Z,14.50
2019-03-19T03:12:41.726Z,15.13
2019-03-19T03:15:50.215Z,12.37
2019-03-19T03:18:38.090Z,12.30
2019-03-19T03:21:06.711Z,13.33
2019-03-19T03:23:54.553Z,15.47
2019-03-19T03:26:48.303Z,14.73
2019-03-19T03:29:32.097Z,12.97
2019-03-19T03:32:02.504Z,9.37
2019-03-19T03:34:50.376Z,15.23
2019-03-19T03:37:38.216Z,14.27
2019-03-19T03:40:26.209Z,12.47
2019-03-19T03:42:54.949Z,13.13
2019-03-19T03:45:23.610Z,13.27
2019-03-19T03:48:11.440Z,14.87
2019-03-19T03:50:40.023Z,13.47
2019-03-19T03:53:27.913Z,16.63
2019-03-19T03:56:15.777Z,16.43
2019-03-19T03:58:44.453Z,15.37
2019-03-19T04:01:32.382Z,13.53
2019-03-19T04:04:01.028Z,15.47
2019-03-19T04:06:48.982Z,17.10
2019-03-19T04:09:36.699Z,16.33
2019-03-19T04:12:24.582Z,17.47
2019-03-19T04:14:53.341Z,13.13
2019-03-19T04:17:22.007Z,14.77
2019-03-19T04:19:50.618Z,25.57
2019-03-19T04:22:19.312Z,33.50
2019-03-19T04:25:07.943Z,29.43
2019-03-19T04:27:39.955Z,27.30
2019-03-19T04:30:26.325Z,24.60
2019-03-19T04:33:14.134Z,14.37
2019-03-19T04:36:02.014Z,21.23
2019-03-19T04:38:49.925Z,18.27
2019-03-19T04:41:37.823Z,15.40
2019-03-19T04:44:06.481Z,20.50
2019-03-19T04:49:29.105Z,14.83
2019-03-19T04:52:16.997Z,17.67
2019-03-19T04:55:04.798Z,13.57
2019-03-19T04:57:52.661Z,14.47
2019-03-19T05:01:01.128Z,12.97
2019-03-19T05:03:29.735Z,14.43
2019-03-19T05:05:59.647Z,17.70
2019-03-19T05:08:28.772Z,13.40
2019-03-19T05:10:57.365Z,13.00
2019-03-19T05:13:45.237Z,13.20
2019-03-19T05:16:33.064Z,14.63
2019-03-19T05:19:20.965Z,15.27
2019-03-19T05:21:49.636Z,12.30
2019-03-19T05:24:37.415Z,20.73
2019-03-19T05:27:06.034Z,12.90
2019-03-19T05:29:54.119Z,15.43
2019-03-19T05:32:41.922Z,13.53
2019-03-19T05:35:10.683Z,13.00
2019-03-19T05:37:39.358Z,16.10
2019-03-19T05:40:27.333Z,14.03
2019-03-19T05:42:55.979Z,15.90
2019-03-19T05:45:24.596Z,12.90
2019-03-19T05:48:12.562Z,14.40
2019-03-19T05:51:00.475Z,16.83
2019-03-19T05:54:08.962Z,14.93
2019-03-19T05:57:17.443Z,15.23
2019-03-19T06:00:26.097Z,16.90
2019-03-19T06:03:14.082Z,18.20
2019-03-19T06:05:42.739Z,19.80
2019-03-19T06:08:11.409Z,17.33
2019-03-19T06:10:59.311Z,13.63
2019-03-19T06:13:47.126Z,19.80
2019-03-19T06:16:15.830Z,15.40
2019-03-19T06:18:44.500Z,18.30
2019-03-19T06:21:13.213Z,14.80
2019-03-19T06:23:41.937Z,14.30
2019-03-19T06:26:29.827Z,15.67
2019-03-19T06:29:17.777Z,14.80
2019-03-19T06:32:05.655Z,16.77
2019-03-19T06:34:34.310Z,13.03
2019-03-19T06:37:03.010Z,14.43
2019-03-19T06:39:31.706Z,17.30
2019-03-19T06:42:00.372Z,16.13
2019-03-19T06:44:48.200Z,16.93
2019-03-19T06:47:36.066Z,20.20
2019-03-19T06:50:45.618Z,14.77
2019-03-19T06:53:15.081Z,16.90
2019-03-19T06:55:43.776Z,15.40
2019-03-19T06:58:12.423Z,13.27
2019-03-19T07:01:00.303Z,14.40
2019-03-19T07:03:28.979Z,13.70
2019-03-19T07:05:57.634Z,11.53
2019-03-19T07:08:45.529Z,13.17
2019-03-19T07:11:33.359Z,9.97
2019-03-19T07:14:02.053Z,10.67
2019-03-19T07:16:30.758Z,12.70
2019-03-19T07:19:18.650Z,10.30
2019-03-19T07:22:06.510Z,10.70
2019-03-19T07:24:54.297Z,8.43
2019-03-19T07:27:42.151Z,9.10
2019-03-19T07:30:30.191Z,10.03
2019-03-19T07:33:18.029Z,9.60
2019-03-19T07:36:06.400Z,8.47
2019-03-19T07:38:36.209Z,9.13
2019-03-19T07:41:04.842Z,9.87
2019-03-19T07:43:33.539Z,8.63
2019-03-19T07:46:21.426Z,11.20
2019-03-19T07:49:09.271Z,11.83
2019-03-19T07:51:57.021Z,8.43
2019-03-19T07:54:25.671Z,9.77
2019-03-19T07:56:54.327Z,9.33
2019-03-19T07:59:22.943Z,11.43
2019-03-19T08:01:51.595Z,13.67
2019-03-19T08:04:20.298Z,10.70
2019-03-19T08:07:08.079Z,10.13
2019-03-19T08:09:55.956Z,9.90
2019-03-19T08:12:24.590Z,11.03
2019-03-19T08:14:53.230Z,12.37
2019-03-19T08:17:21.842Z,9.53
2019-03-19T08:19:50.505Z,8.53
2019-03-19T08:22:19.193Z,9.77
2019-03-19T08:25:08.747Z,10.27
2019-03-19T08:27:37.337Z,9.83
2019-03-19T08:30:45.801Z,13.20
2019-03-19T08:33:33.777Z,13.93
2019-03-19T08:36:09.347Z,10.23
2019-03-19T08:38:32.834Z,11.83
2019-03-19T08:41:01.551Z,12.80
2019-03-19T08:43:30.186Z,8.97
2019-03-19T08:45:58.883Z,9.60
2019-03-19T08:48:27.533Z,7.90
2019-03-19T08:51:15.350Z,9.03
2019-03-19T08:54:03.177Z,7.43
2019-03-19T08:56:51.063Z,6.77
2019-03-19T08:59:19.670Z,9.00
2019-03-19T09:01:48.368Z,10.43
2019-03-19T09:04:17.019Z,9.17
2019-03-19T09:06:45.627Z,16.03
2019-03-19T09:12:21.072Z,8.73
2019-03-19T09:14:49.720Z,10.27
2019-03-19T09:17:18.379Z,6.43
2019-03-19T09:19:47.075Z,9.80
2019-03-19T09:22:34.820Z,11.63
2019-03-19T09:25:22.707Z,6.13
2019-03-19T09:28:10.624Z,11.20
2019-03-19T09:30:58.432Z,10.50
2019-03-19T09:33:46.282Z,10.57
2019-03-19T09:36:34.240Z,8.23
2019-03-19T09:39:02.920Z,5.20
2019-03-19T09:41:50.817Z,5.73
2019-03-19T09:44:38.686Z,7.63
2019-03-19T09:47:26.673Z,5.93
2019-03-19T09:50:14.618Z,6.50
2019-03-19T09:53:23.047Z,6.17
2019-03-19T09:56:10.927Z,3.73
2019-03-19T09:58:39.510Z,7.73
2019-03-19T10:01:27.443Z,9.63
2019-03-19T10:04:15.264Z,8.27
2019-03-19T10:06:43.893Z,5.67
2019-03-19T10:09:31.686Z,6.07
2019-03-19T10:12:19.547Z,5.80
2019-03-19T10:15:07.413Z,7.13
2019-03-19T10:17:55.252Z,8.20
2019-03-19T10:20:43.165Z,6.10
2019-03-19T10:23:30.968Z,6.97
2019-03-19T10:26:18.758Z,5.23
2019-03-19T10:29:06.620Z,4.77
2019-03-19T10:31:35.279Z,5.97
2019-03-19T10:34:03.957Z,5.23
2019-03-19T10:36:51.850Z,5.10
2019-03-19T10:39:39.765Z,5.33
2019-03-19T10:42:08.394Z,5.00
2019-03-19T10:44:56.255Z,7.67
2019-03-19T10:47:44.217Z,5.73
2019-03-19T10:50:32.139Z,4.63
2019-03-19T10:53:20.004Z,5.13
2019-03-19T10:56:07.878Z,7.83
2019-03-19T10:58:55.580Z,6.17
2019-03-19T11:01:43.523Z,5.63
2019-03-19T11:04:31.559Z,5.17
2019-03-19T11:07:19.402Z,4.60
2019-03-19T11:10:07.276Z,4.43
2019-03-19T11:12:55.224Z,6.00
2019-03-19T11:16:03.725Z,6.47
2019-03-19T11:18:51.564Z,7.10
2019-03-19T11:21:39.375Z,3.70
2019-03-19T11:24:27.303Z,3.87
2019-03-19T11:27:15.175Z,5.00
2019-03-19T11:30:03.088Z,2.73
2019-03-19T11:32:31.796Z,4.33
2019-03-19T11:35:19.731Z,4.20
2019-03-19T11:37:48.392Z,4.90
2019-03-19T11:40:36.357Z,3.27
2019-03-19T11:43:44.774Z,3.23
2019-03-19T11:46:32.662Z,1.80
2019-03-19T11:49:20.471Z,3.60
2019-03-19T11:52:08.374Z,3.70
2019-03-19T11:54:56.318Z,3.67
2019-03-19T11:57:44.073Z,3.93
2019-03-19T12:03:15.880Z,2.63
2019-03-19T12:05:41.430Z,5.33
2019-03-19T12:08:29.285Z,4.83
2019-03-19T12:11:17.220Z,3.47
2019-03-19T12:14:05.011Z,3.00
2019-03-19T12:16:33.691Z,2.50
2019-03-19T12:19:21.609Z,7.70
2019-03-19T12:22:09.551Z,3.90
2019-03-19T12:24:57.444Z,8.93
2019-03-19T12:27:26.027Z,2.07
2019-03-19T12:30:21.711Z,4.50
2019-03-19T12:32:44.346Z,3.30
2019-03-19T12:35:52.819Z,3.13
2019-03-19T12:38:40.684Z,2.60
2019-03-19T12:41:28.586Z,2.53
2019-03-19T12:44:16.513Z,5.27
2019-03-19T12:47:04.364Z,2.93
2019-03-19T12:49:52.317Z,1.97
2019-03-19T12:52:40.100Z,2.20
2019-03-19T12:55:48.536Z,2.70
2019-03-19T12:58:36.425Z,5.67
2019-03-19T13:01:24.427Z,7.77
2019-03-19T13:04:14.018Z,6.63
2019-03-19T13:07:01.869Z,5.13
2019-03-19T13:09:49.759Z,2.90
2019-03-19T13:12:37.580Z,8.27
2019-03-19T13:15:46.070Z,2.40
2019-03-19T13:18:33.906Z,3.23
2019-03-19T13:21:21.652Z,4.53
2019-03-19T13:24:09.598Z,2.20
2019-03-19T13:26:57.511Z,2.23
2019-03-19T13:29:45.231Z,4.23
2019-03-19T13:32:33.129Z,4.15
2019-03-19T13:35:21.066Z,4.12
2019-03-19T13:37:49.739Z,2.70
2019-03-19T13:40:58.230Z,4.50
2019-03-19T13:43:26.838Z,2.67
2019-03-19T13:46:14.782Z,4.10
2019-03-19T13:49:02.622Z,3.17
2019-03-19T13:51:50.479Z,3.83
2019-03-19T13:54:38.282Z,3.70
2019-03-19T13:57:26.091Z,3.90
2019-03-19T14:00:13.990Z,3.77
2019-03-19T14:02:42.682Z,2.92
2019-03-19T14:05:51.115Z,3.10
2019-03-19T14:08:39.008Z,3.77
2019-03-19T14:11:07.574Z,5.53
2019-03-19T14:13:55.870Z,3.37
2019-03-19T14:16:25.711Z,2.37
2019-03-19T14:19:13.519Z,2.40
2019-03-19T14:22:01.282Z,2.70
2019-03-19T14:24:49.150Z,5.30
2019-03-19T14:27:37.036Z,4.37
2019-03-19T14:30:45.520Z,4.17
2019-03-19T14:33:33.410Z,6.87
2019-03-19T14:36:21.254Z,4.40
2019-03-19T14:39:09.122Z,2.43
2019-03-19T14:41:37.758Z,1.77
2019-03-19T14:44:06.466Z,3.53
2019-03-19T14:46:54.295Z,4.80
2019-03-19T14:49:46.993Z,3.80
2019-03-19T14:55:19.474Z,6.17
2019-03-19T14:57:50.669Z,3.90
2019-03-19T15:00:58.306Z,2.90
2019-03-19T15:03:46.209Z,4.30
2019-03-19T15:06:34.094Z,1.63
2019-03-19T15:09:02.750Z,1.70
2019-03-19T15:11:50.709Z,8.10
2019-03-19T15:14:38.551Z,2.40
2019-03-19T15:17:26.429Z,3.07
2019-03-19T15:20:14.204Z,2.27
2019-03-19T15:22:42.906Z,1.73
2019-03-19T15:27:45.404Z,3.03
2019-03-19T15:30:53.839Z,3.93
2019-03-19T15:33:41.781Z,5.63
2019-03-19T15:36:29.630Z,5.87
2019-03-19T15:39:17.438Z,3.93
2019-03-19T15:42:05.353Z,4.60
2019-03-19T15:44:53.237Z,3.33
2019-03-19T15:47:41.095Z,9.23
2019-03-19T15:50:49.552Z,2.07
2019-03-19T15:53:37.433Z,2.13
2019-03-19T15:56:25.350Z,3.83
2019-03-19T15:59:13.141Z,3.27
2019-03-19T16:07:33.872Z,1.70
2019-03-19T16:10:21.728Z,2.20
2019-03-19T16:13:09.579Z,4.13
2019-03-19T16:15:57.396Z,4.20
2019-03-19T16:18:45.362Z,7.07
2019-03-19T16:21:14.055Z,2.93
2019-03-19T16:24:01.887Z,4.53
2019-03-19T16:26:49.840Z,5.33
2019-03-19T16:29:37.711Z,4.00
2019-03-19T16:32:25.492Z,4.60
2019-03-19T16:35:13.425Z,5.10
2019-03-19T16:38:01.204Z,3.93
2019-03-19T16:40:49.083Z,4.97
2019-03-19T16:43:17.754Z,6.90
2019-03-19T16:46:05.634Z,3.77
2019-03-19T16:48:53.539Z,3.60
2019-03-19T16:51:41.481Z,2.30
2019-03-19T16:54:29.292Z,5.83
2019-03-19T16:57:17.226Z,3.90
2019-03-19T17:00:05.027Z,2.33
2019-03-19T17:05:47.336Z,3.20
2019-03-19T17:11:09.345Z,6.47
2019-03-19T17:14:18.082Z,4.30
2019-03-19T17:17:07.871Z,5.10
2019-03-19T17:23:02.720Z,6.00
2019-03-19T17:25:50.594Z,4.33
2019-03-19T17:28:38.440Z,8.67
2019-03-19T17:31:07.091Z,6.53
2019-03-19T17:33:54.962Z,6.67
2019-03-19T17:36:42.756Z,4.87
2019-03-19T17:39:30.605Z,3.03
2019-03-19T17:42:18.483Z,4.67
2019-03-19T17:44:47.189Z,6.33
2019-03-19T17:47:35.160Z,3.23
2019-03-19T17:50:43.621Z,4.03
2019-03-19T17:53:31.440Z,5.17
2019-03-19T17:56:19.233Z,4.60
2019-03-19T17:59:07.179Z,11.77
2019-03-19T18:01:55.076Z,7.10
2019-03-19T18:04:23.778Z,8.10
2019-03-19T18:07:11.733Z,11.70
2019-03-19T18:09:40.415Z,6.20
2019-03-19T18:12:28.252Z,4.97
2019-03-19T18:15:16.040Z,5.13
2019-03-19T18:20:39.286Z,3.37
2019-03-19T18:23:47.793Z,3.70
2019-03-19T18:26:35.508Z,6.53
2019-03-19T18:29:23.400Z,4.40
2019-03-19T18:37:33.913Z,5.83
2019-03-19T18:40:02.905Z,3.53
2019-03-19T18:42:50.957Z,2.20
2019-03-19T18:45:39.092Z,3.17
2019-03-19T18:48:27.330Z,8.67
2019-03-19T18:54:04.732Z,4.03
2019-03-19T18:56:52.678Z,3.13
2019-03-19T18:59:40.603Z,4.80
2019-03-19T19:05:35.613Z,6.80
2019-03-19T19:08:23.617Z,5.23
2019-03-19T19:11:11.835Z,4.37
2019-03-19T19:14:00.281Z,5.93
2019-03-19T19:16:48.411Z,5.43
2019-03-19T19:19:38.004Z,4.17
2019-03-19T19:22:27.464Z,5.23
2019-03-19T19:25:16.213Z,5.63
2019-03-19T19:28:04.348Z,7.87
2019-03-19T19:30:52.531Z,6.23
2019-03-19T19:41:43.876Z,4.87
2019-03-19T19:44:26.436Z,5.60
2019-03-19T19:47:15.132Z,9.13
2019-03-19T19:50:03.191Z,3.50
2019-03-19T19:52:51.178Z,3.97
2019-03-19T19:58:34.656Z,4.70
2019-03-19T20:01:03.531Z,5.00
2019-03-19T20:06:31.422Z,5.57
2019-03-19T20:09:40.098Z,7.90
2019-03-19T20:15:35.209Z,8.17
2019-03-19T20:18:23.446Z,8.43
2019-03-19T20:21:11.674Z,7.13
2019-03-19T20:23:59.827Z,8.93
2019-03-19T20:26:28.722Z,10.77
2019-03-19T20:29:16.956Z,9.03
2019-03-19T20:35:04.299Z,8.83
2019-03-19T20:40:40.177Z,8.50
2019-03-19T20:43:28.318Z,7.20
2019-03-19T20:46:16.366Z,10.00
2019-03-19T20:49:04.693Z,13.83
2019-03-19T20:51:52.849Z,9.17
2019-03-19T20:54:40.982Z,18.17
2019-03-19T20:57:29.227Z,11.73
2019-03-19T21:00:17.566Z,8.40
2019-03-19T21:03:05.427Z,7.10
2019-03-19T21:05:53.363Z,8.27
2019-03-19T21:08:41.242Z,7.97
2019-03-19T21:11:10.047Z,11.40
2019-03-19T21:13:57.987Z,11.17
2019-03-19T21:16:45.860Z,13.73
2019-03-19T21:19:33.727Z,20.83
2019-03-19T21:22:21.638Z,14.53
2019-03-19T21:25:09.900Z,11.23
2019-03-19T21:31:04.652Z,13.50
2019-03-19T21:33:33.294Z,12.60
2019-03-19T21:36:21.393Z,18.03
2019-03-19T21:39:09.365Z,14.40
2019-03-19T21:41:57.335Z,17.87
2019-03-19T21:44:45.313Z,15.90
2019-03-19T21:47:53.792Z,15.07
2019-03-19T21:51:02.270Z,14.73
2019-03-19T21:53:50.170Z,13.50
2019-03-19T21:56:38.041Z,15.57
2019-03-19T21:59:26.035Z,14.70
2019-03-19T22:01:54.768Z,9.47
2019-03-19T22:04:42.624Z,9.17
2019-03-19T22:10:05.326Z,10.63
2019-03-19T22:12:54.704Z,13.00
2019-03-19T22:15:42.655Z,8.67
2019-03-19T22:18:30.609Z,9.57
2019-03-19T22:21:18.558Z,6.30
2019-03-19T22:24:06.428Z,13.37
2019-03-19T22:26:54.320Z,4.80
2019-03-19T22:29:22.958Z,6.57
2019-03-19T22:32:10.786Z,15.80
2019-03-19T22:34:58.489Z,4.43
2019-03-19T22:37:46.403Z,6.43
2019-03-19T22:40:54.867Z,9.10
2019-03-19T22:43:25.844Z,6.63
2019-03-19T22:46:33.662Z,8.60
2019-03-19T22:49:21.620Z,8.90
2019-03-19T22:52:09.568Z,6.10
2019-03-19T22:54:57.371Z,4.93
2019-03-19T22:57:45.273Z,7.67
2019-03-19T23:00:52.425Z,7.20
2019-03-19T23:03:40.285Z,10.27
2019-03-19T23:06:28.149Z,4.63
2019-03-19T23:09:16.081Z,11.33
2019-03-19T23:12:04.138Z,8.00
2019-03-19T23:14:51.987Z,10.03
2019-03-19T23:17:39.937Z,9.17
2019-03-19T23:20:48.432Z,8.10
2019-03-19T23:23:17.130Z,7.83
2019-03-19T23:26:05.059Z,4.43
2019-03-19T23:31:28.634Z,4.03
2019-03-19T23:33:57.323Z,6.70
2019-03-19T23:36:45.085Z,6.33
2019-03-19T23:39:33.044Z,4.23
2019-03-19T23:42:20.946Z,8.40
2019-03-19T23:48:03.744Z,6.87
2019-03-19T23:53:32.301Z,6.63
2019-03-19T23:56:20.113Z,9.70
2019-03-19T23:59:08.010Z,8.17
